createdAt,value
2023-01-30T00:03:25.397Z,22.10
2023-01-30T00:08:27.492Z,22.10
2023-01-30T00:13:29.466Z,22.00
2023-01-30T00:18:31.499Z,22.00
2023-01-30T00:23:34.410Z,21.90
2023-01-30T00:28:36.830Z,22.30
2023-01-30T00:33:39.691Z,22.20
2023-01-30T00:38:41.755Z,22.10
2023-01-30T00:44:02.620Z,22.10
2023-01-30T00:49:04.668Z,21.90
2023-01-30T00:54:06.742Z,22.00
2023-01-30T00:59:09.139Z,22.40
2023-01-30T01:04:11.791Z,22.20
2023-01-30T01:09:13.827Z,22.60
2023-01-30T01:14:15.830Z,22.60
2023-01-30T01:19:17.943Z,22.60
2023-01-30T01:24:19.964Z,22.30
2023-01-30T01:29:22.001Z,22.80
2023-01-30T01:34:23.970Z,22.70
2023-01-30T01:39:45.985Z,22.70
2023-01-30T01:45:13.223Z,22.80
2023-01-30T01:55:20.445Z,22.70
2023-01-30T02:00:23.589Z,22.90
2023-01-30T02:05:28.441Z,22.60
2023-01-30T02:10:47.688Z,22.60
2023-01-30T02:15:50.854Z,22.70
2023-01-30T02:21:06.567Z,22.80
2023-01-30T02:26:19.198Z,22.70
2023-01-30T02:31:25.545Z,22.90
2023-01-30T02:36:28.175Z,23.10
2023-01-30T02:41:42.511Z,23.00
2023-01-30T02:46:47.620Z,23.00
2023-01-30T02:51:50.823Z,22.90
2023-01-30T02:56:54.137Z,23.00
2023-01-30T03:02:15.929Z,23.30
2023-01-30T03:07:36.974Z,23.30
2023-01-30T03:12:51.354Z,22.80
2023-01-30T03:17:54.783Z,22.80
2023-01-30T03:22:56.979Z,23.00
2023-01-30T03:28:00.357Z,23.00
2023-01-30T03:33:03.157Z,23.50
2023-01-30T03:38:05.314Z,23.00
2023-01-30T03:43:07.837Z,23.20
2023-01-30T03:48:11.003Z,23.60
2023-01-30T03:53:13.247Z,23.70
2023-01-30T03:58:15.377Z,23.60
2023-01-30T04:03:17.505Z,23.80
2023-01-30T04:08:19.799Z,23.40
2023-01-30T04:13:21.857Z,23.70
2023-01-30T04:18:24.181Z,24.00
2023-01-30T04:23:26.334Z,23.60
2023-01-30T04:28:28.417Z,23.90
2023-01-30T04:33:35.230Z,24.20
2023-01-30T04:38:38.465Z,23.90
2023-01-30T04:43:40.865Z,23.80
2023-01-30T04:48:46.195Z,23.90
2023-01-30T04:53:48.476Z,24.00
2023-01-30T04:58:50.568Z,23.90
2023-01-30T05:03:54.434Z,25.90
2023-01-30T05:08:57.379Z,24.60
2023-01-30T05:13:59.696Z,24.30
2023-01-30T05:19:01.689Z,24.00
2023-01-30T05:24:03.921Z,24.50
2023-01-30T05:29:05.982Z,24.20
2023-01-30T05:34:10.910Z,24.10
2023-01-30T05:39:13.344Z,24.10
2023-01-30T05:44:17.199Z,24.20
2023-01-30T05:49:20.273Z,24.30
2023-01-30T05:54:22.530Z,24.40
2023-01-30T05:59:24.560Z,24.90
2023-01-30T06:04:26.570Z,24.70
2023-01-30T06:09:28.503Z,25.10
2023-01-30T06:14:30.490Z,25.10
2023-01-30T06:19:32.569Z,25.10
2023-01-30T06:24:34.621Z,25.20
2023-01-30T06:29:36.584Z,25.10
2023-01-30T06:34:38.601Z,24.60
2023-01-30T06:39:40.509Z,24.60
2023-01-30T06:44:42.473Z,25.20
2023-01-30T06:49:44.480Z,25.00
2023-01-30T06:54:46.436Z,25.40
2023-01-30T06:59:48.422Z,25.20
2023-01-30T07:04:50.438Z,25.40
2023-01-30T07:10:07.035Z,25.40
2023-01-30T07:15:10.271Z,25.60
2023-01-30T07:20:12.380Z,25.70
2023-01-30T07:25:14.329Z,25.40
2023-01-30T07:30:16.479Z,25.60
2023-01-30T07:35:19.017Z,25.50
2023-01-30T07:40:21.752Z,25.60
2023-01-30T07:45:24.280Z,26.10
2023-01-30T07:50:27.029Z,25.70
2023-01-30T07:55:29.029Z,26.10
2023-01-30T08:00:31.121Z,26.00
2023-01-30T08:05:33.091Z,26.20
2023-01-30T08:10:35.122Z,25.90
2023-01-30T08:15:37.145Z,25.80
2023-01-30T08:20:39.163Z,26.00
2023-01-30T08:25:41.183Z,25.70
2023-01-30T08:30:43.461Z,26.20
2023-01-30T08:35:45.572Z,25.90
2023-01-30T08:40:47.581Z,26.20
2023-01-30T08:45:49.650Z,25.80
2023-01-30T08:50:52.942Z,26.20
2023-01-30T08:55:54.931Z,26.10
2023-01-30T09:00:56.970Z,26.00
2023-01-30T09:05:59.033Z,26.00
2023-01-30T09:11:02.064Z,25.70
2023-01-30T09:16:06.194Z,25.60
2023-01-30T09:21:08.795Z,25.70
2023-01-30T09:26:10.973Z,25.70
2023-01-30T09:31:13.138Z,25.50
2023-01-30T09:36:15.259Z,25.60
2023-01-30T09:41:32.501Z,25.00
2023-01-30T09:46:40.518Z,25.50
2023-01-30T09:51:56.991Z,25.30
2023-01-30T09:57:21.565Z,25.50
2023-01-30T10:02:31.554Z,25.40
2023-01-30T10:07:36.675Z,24.60
2023-01-30T10:12:48.956Z,24.60
2023-01-30T10:18:14.939Z,24.70
2023-01-30T10:23:23.235Z,24.70
2023-01-30T10:28:30.823Z,24.70
2023-01-30T10:33:45.289Z,24.70
2023-01-30T10:38:49.208Z,24.60
2023-01-30T10:44:12.896Z,24.60
2023-01-30T10:49:19.609Z,24.50
2023-01-30T10:54:57.023Z,24.60
2023-01-30T11:00:05.615Z,24.70
2023-01-30T11:05:15.620Z,24.70
2023-01-30T11:10:19.619Z,24.80
2023-01-30T11:15:25.501Z,24.80
2023-01-30T11:20:27.639Z,24.70
2023-01-30T11:25:29.782Z,24.90
2023-01-30T11:30:36.299Z,24.80
2023-01-30T11:35:44.325Z,24.90
2023-01-30T11:40:46.376Z,24.80
2023-01-30T11:45:49.966Z,24.80
2023-01-30T11:50:58.173Z,24.60
2023-01-30T11:56:09.113Z,24.70
2023-01-30T12:01:12.248Z,25.10
2023-01-30T12:06:21.859Z,24.80
2023-01-30T12:11:47.099Z,25.00
2023-01-30T12:16:53.908Z,24.80
2023-01-30T12:22:14.515Z,25.00
2023-01-30T12:27:21.557Z,25.00
2023-01-30T12:32:26.430Z,24.70
2023-01-30T12:37:47.268Z,24.30
2023-01-30T12:42:58.080Z,24.60
2023-01-30T12:48:12.909Z,24.60
2023-01-30T12:53:33.787Z,24.50
2023-01-30T12:58:45.916Z,24.30
2023-01-30T13:03:55.321Z,24.40
2023-01-30T13:08:57.284Z,24.50
2023-01-30T13:14:04.911Z,24.20
2023-01-30T13:19:11.031Z,24.10
2023-01-30T13:24:15.996Z,24.00
2023-01-30T13:29:38.231Z,24.10
2023-01-30T13:34:45.229Z,24.10
2023-01-30T13:40:00.495Z,24.30
2023-01-30T13:45:05.479Z,24.40
2023-01-30T13:50:26.191Z,24.90
2023-01-30T13:55:47.203Z,24.40
2023-01-30T14:00:53.908Z,24.30
2023-01-30T14:06:00.744Z,24.30
2023-01-30T14:11:03.005Z,24.60
2023-01-30T14:16:05.887Z,24.30
2023-01-30T14:21:28.773Z,24.50
2023-01-30T14:26:59.416Z,24.50
2023-01-30T14:32:01.548Z,24.30
2023-01-30T14:37:05.182Z,24.30
2023-01-30T14:42:39.798Z,24.30
2023-01-30T14:47:45.114Z,24.30
2023-01-30T14:52:54.523Z,24.40
2023-01-30T14:57:58.983Z,24.50
2023-01-30T15:03:03.381Z,24.60
2023-01-30T15:08:07.745Z,24.70
2023-01-30T15:13:12.606Z,24.80
2023-01-30T15:18:26.869Z,24.90
2023-01-30T15:23:35.681Z,24.90
2023-01-30T15:28:44.200Z,24.90
2023-01-30T15:33:50.651Z,24.80
2023-01-30T15:38:56.940Z,24.80
2023-01-30T15:43:58.943Z,24.70
2023-01-30T15:49:24.223Z,24.70
2023-01-30T15:54:26.950Z,24.80
2023-01-30T15:59:34.941Z,24.80
2023-01-30T16:04:37.003Z,25.00
2023-01-30T16:09:39.040Z,25.10
2023-01-30T16:14:41.165Z,25.30
2023-01-30T16:19:43.275Z,25.30
2023-01-30T16:24:47.607Z,25.30
2023-01-30T16:29:53.158Z,25.20
2023-01-30T16:35:13.705Z,25.30
2023-01-30T16:40:21.687Z,25.20
2023-01-30T16:45:27.035Z,25.30
2023-01-30T16:50:29.104Z,25.40
2023-01-30T16:55:31.242Z,25.30
2023-01-30T17:00:38.679Z,25.70
2023-01-30T17:05:41.955Z,25.80
2023-01-30T17:10:51.213Z,25.90
2023-01-30T17:15:53.248Z,26.00
2023-01-30T17:20:55.261Z,26.10
2023-01-30T17:25:57.447Z,26.40
2023-01-30T17:30:59.464Z,26.20
2023-01-30T17:36:03.346Z,26.40
2023-01-30T17:41:08.057Z,26.40
2023-01-30T17:46:11.871Z,26.60
2023-01-30T17:51:14.350Z,26.70
2023-01-30T17:56:19.174Z,27.10
2023-01-30T18:01:21.374Z,27.20
2023-01-30T18:06:23.604Z,27.60
2023-01-30T18:11:25.822Z,27.50
2023-01-30T18:16:31.171Z,27.60
2023-01-30T18:21:33.944Z,28.30
2023-01-30T18:26:36.084Z,27.80
2023-01-30T18:31:39.274Z,28.00
2023-01-30T18:36:41.532Z,28.00
2023-01-30T18:41:43.608Z,28.00
2023-01-30T18:46:45.645Z,28.10
2023-01-30T18:51:47.695Z,28.30
2023-01-30T18:56:49.766Z,28.10
2023-01-30T19:01:51.803Z,28.10
2023-01-30T19:06:54.784Z,28.00
2023-01-30T19:12:15.391Z,28.00
2023-01-30T19:17:17.449Z,27.90
2023-01-30T19:22:19.452Z,27.80
2023-01-30T19:27:21.509Z,27.70
2023-01-30T19:32:25.588Z,27.70
2023-01-30T19:37:27.605Z,27.70
2023-01-30T19:42:29.567Z,27.60
2023-01-30T19:47:31.639Z,27.60
2023-01-30T19:52:33.639Z,27.60
2023-01-30T19:57:35.688Z,27.40
2023-01-30T20:02:38.446Z,27.50
2023-01-30T20:07:40.565Z,27.40
2023-01-30T20:12:42.898Z,27.50
2023-01-30T20:17:44.935Z,27.50
2023-01-30T20:22:48.424Z,27.20
2023-01-30T20:27:50.621Z,27.00
2023-01-30T20:32:53.819Z,27.10
2023-01-30T20:37:55.874Z,27.00
2023-01-30T20:42:57.936Z,27.10
2023-01-30T20:48:00.134Z,26.90
2023-01-30T20:53:02.133Z,26.90
2023-01-30T20:58:04.797Z,27.00
2023-01-30T21:03:06.857Z,26.90
2023-01-30T21:08:08.911Z,26.80
2023-01-30T21:13:10.872Z,26.70
2023-01-30T21:18:12.899Z,26.60
2023-01-30T21:23:14.956Z,26.70
2023-01-30T21:28:16.963Z,26.90
2023-01-30T21:33:19.014Z,27.00
2023-01-30T21:38:40.190Z,26.60
2023-01-30T21:43:42.383Z,26.70
2023-01-30T21:48:45.549Z,26.60
2023-01-30T21:53:47.596Z,26.60
2023-01-30T21:58:49.874Z,26.50
2023-01-30T22:03:51.998Z,26.70
2023-01-30T22:08:58.202Z,27.20
2023-01-30T22:14:00.246Z,26.50
2023-01-30T22:19:03.964Z,26.40
2023-01-30T22:24:07.389Z,26.40
2023-01-30T22:29:09.615Z,26.50
2023-01-30T22:34:11.661Z,26.40
2023-01-30T22:39:13.706Z,26.30
2023-01-30T22:44:15.840Z,26.10
2023-01-30T22:49:17.887Z,26.10
2023-01-30T22:54:19.907Z,26.40
2023-01-30T22:59:22.817Z,26.30
2023-01-30T23:04:25.018Z,26.70
2023-01-30T23:09:27.085Z,26.00
2023-01-30T23:14:29.462Z,25.60
2023-01-30T23:19:31.522Z,25.70
2023-01-30T23:24:33.522Z,25.90
2023-01-30T23:29:35.768Z,26.20
2023-01-30T23:34:37.798Z,25.70
2023-01-30T23:39:40.099Z,25.50
2023-01-30T23:44:42.215Z,25.50
2023-01-30T23:49:44.329Z,25.40
2023-01-30T23:54:46.332Z,25.40
2023-01-30T23:59:48.390Z,25.40
